Terminal Aerodrome Forecast
Issued by NWS Tampa Bay Area, FL

Home | Current Version | Previous Version | Text Only | Print | Product List | Glossary On
Versions: 1 2 3 4 5 6 7 8 9 10 11 12 13 14 15
000
FTUS42 KTBW 201700
TAFSRQ
TAF
KSRQ 201740Z 2018/2118 34005KT P6SM VCSH SCT025 BKN250
      TEMPO 2018/2021 BKN025
     FM202100 30006KT P6SM VCSH SCT030 BKN250
     FM210100 VRB03KT P6SM SCT025 BKN250
     FM211600 25006KT P6SM SCT035 BKN250=

USA.gov is the U.S. government's official web portal to all federal, state and local government web resources and services.